Time;durP1;ratioP1;P1;durP2;ratioP2;P2;SDS_P1;SDS_P2;PMS_P1;PMS_P2;Temp;Humidity;BMP_temperature;BMP_pressure;BME280_temperature;BME280_humidity;BME280_pressure;Samples;Min_cycle;Max_cycle;Signal;HPM_P1;HPM_P2
2022/09/11 00:03:41;;;;;;;1.90;1.10;;;;;;;19.64;64.37;96634.47;10564788;28;20063;-54
2022/09/11 00:09:03;;;;;;;3.17;1.50;;;;;;;19.65;64.38;96636.06;10536405;28;20488;-52
2022/09/11 00:14:22;;;;;;;3.33;1.17;;;;;;;19.65;64.30;96638.78;10537530;28;20048;-52
2022/09/11 00:19:42;;;;;;;1.75;1.17;;;;;;;19.65;64.34;96627.97;10537531;28;20044;-52
2022/09/11 00:25:01;;;;;;;2.25;1.40;;;;;;;19.64;64.39;96632.59;10536780;28;20101;-53
2022/09/11 00:30:21;;;;;;;2.67;1.25;;;;;;;19.64;64.39;96631.78;10535780;28;20060;-53
2022/09/11 00:35:41;;;;;;;1.98;1.20;;;;;;;19.63;64.35;96631.00;10544079;28;20426;-54
2022/09/11 00:41:05;;;;;;;2.40;1.20;;;;;;;19.64;64.37;96623.66;10540739;28;20634;-53
2022/09/11 00:46:38;;;;;;;3.10;1.63;;;;;;;19.63;64.36;96628.28;10510060;28;20045;-54
2022/09/11 00:52:27;;;;;;;1.92;1.25;;;;;;;19.64;64.39;96620.97;10523748;28;20056;-54
2022/09/11 00:57:51;;;;;;;1.98;1.38;;;;;;;19.63;64.42;96624.81;10508200;28;20458;-54
2022/09/11 01:03:11;;;;;;;2.33;1.13;;;;;;;19.63;64.31;96622.88;10542404;28;20051;-53
2022/09/11 01:08:30;;;;;;;1.70;1.30;;;;;;;19.62;64.33;96617.81;10515756;28;20053;-54
2022/09/11 01:13:56;;;;;;;2.33;1.33;;;;;;;19.62;64.37;96615.91;10542625;28;20097;-53
2022/09/11 01:19:39;;;;;;;1.60;1.25;;;;;;;19.63;64.36;96608.59;10527278;28;20055;-53
2022/09/11 01:25:05;;;;;;;1.85;1.00;;;;;;;19.63;64.38;96605.88;10529661;28;20044;-53
2022/09/11 01:30:46;;;;;;;1.80;1.00;;;;;;;19.62;64.37;96607.81;10541270;28;20411;-53
2022/09/11 01:36:08;;;;;;;1.38;1.00;;;;;;;19.63;64.41;96608.59;10511208;28;20052;-52
2022/09/11 01:41:47;;;;;;;1.70;1.00;;;;;;;19.62;64.31;96610.50;10548345;28;20056;-52
2022/09/11 01:47:09;;;;;;;3.50;1.20;;;;;;;19.62;64.40;96610.50;10537158;28;20040;-53
2022/09/11 01:52:39;;;;;;;1.25;1.00;;;;;;;19.62;64.39;96612.41;10497355;28;20048;-53
2022/09/11 01:58:11;;;;;;;1.38;1.05;;;;;;;19.62;64.35;96612.41;10538559;28;20039;-52
2022/09/11 02:03:41;;;;;;;1.52;1.17;;;;;;;19.61;64.33;96608.91;10489864;28;20047;-52
2022/09/11 02:09:05;;;;;;;1.50;1.00;;;;;;;19.62;64.35;96607.00;10510832;28;20393;-53
2022/09/11 02:14:34;;;;;;;1.33;1.05;;;;;;;19.62;64.19;96607.81;10511382;28;20083;-53
2022/09/11 02:19:55;;;;;;;1.42;0.90;;;;;;;19.61;64.30;96602.72;10513976;28;20047;-53
2022/09/11 02:25:15;;;;;;;1.70;1.20;;;;;;;19.60;64.30;96607.34;10525090;28;20055;-53
2022/09/11 02:30:39;;;;;;;1.88;1.05;;;;;;;19.61;64.27;96610.81;10510187;28;20044;-52
2022/09/11 02:36:28;;;;;;;2.13;1.10;;;;;;;19.62;64.28;96612.41;10533239;28;20043;-54
2022/09/11 02:42:02;;;;;;;1.48;0.90;;;;;;;19.62;64.26;96609.69;10480108;28;20060;-53
2022/09/11 02:47:27;;;;;;;1.30;1.00;;;;;;;19.61;64.20;96605.44;10565974;28;20055;-51
2022/09/11 02:52:54;;;;;;;1.98;0.95;;;;;;;19.60;64.20;96598.41;10509822;28;20052;-53
2022/09/11 02:58:32;;;;;;;1.30;0.90;;;;;;;19.61;64.16;96605.44;10536810;28;20052;-53
2022/09/11 03:03:52;;;;;;;1.00;0.85;;;;;;;19.60;64.18;96601.94;10523880;28;20075;-53
2022/09/11 03:09:11;;;;;;;0.70;0.70;;;;;;;19.60;64.14;96607.34;10536607;28;20384;-52
2022/09/11 03:14:31;;;;;;;1.33;0.77;;;;;;;19.60;64.17;96604.63;10510273;28;20055;-53
2022/09/11 03:19:51;;;;;;;1.45;0.70;;;;;;;19.60;64.12;96604.63;10538848;28;20067;-53
2022/09/11 03:25:11;;;;;;;0.95;0.80;;;;;;;19.60;64.15;96598.41;10523237;28;20059;-53
2022/09/11 03:30:31;;;;;;;1.73;0.85;;;;;;;19.61;64.05;96608.13;10509304;28;20053;-53
2022/09/11 03:35:51;;;;;;;1.00;0.90;;;;;;;19.61;64.05;96600.81;10545942;28;20039;-51
2022/09/11 03:41:12;;;;;;;0.80;0.80;;;;;;;19.60;64.14;96599.25;10515568;28;20075;-52
2022/09/11 03:46:33;;;;;;;1.30;0.90;;;;;;;19.60;64.20;96603.81;10512885;28;20113;-52
2022/09/11 03:51:53;;;;;;;1.25;0.90;;;;;;;19.60;64.08;96607.34;10497150;28;20052;-53
2022/09/11 03:57:13;;;;;;;1.23;0.88;;;;;;;19.59;64.21;96604.97;10535328;28;20117;-54
2022/09/11 04:02:33;;;;;;;0.75;0.75;;;;;;;19.59;64.12;96616.56;10532045;28;20056;-51
2022/09/11 04:07:53;;;;;;;1.30;0.80;;;;;;;19.59;64.07;96623.88;10543221;28;20433;-53
2022/09/11 04:13:13;;;;;;;1.17;0.80;;;;;;;19.59;64.10;96618.47;10546544;28;20044;-52
2022/09/11 04:18:35;;;;;;;1.00;0.80;;;;;;;19.59;64.08;96613.84;10552606;28;20399;-53
2022/09/11 04:23:56;;;;;;;1.55;0.68;;;;;;;19.58;64.10;96616.88;10558123;28;20040;-53
2022/09/11 04:29:19;;;;;;;0.80;0.60;;;;;;;19.58;64.04;96624.97;10547770;28;20058;-53
2022/09/11 04:34:39;;;;;;;0.80;0.60;;;;;;;19.59;64.09;96623.88;10547133;28;20115;-52
2022/09/11 04:39:59;;;;;;;0.70;0.70;;;;;;;19.59;64.04;96626.59;10563952;28;20060;-53
2022/09/11 04:45:18;;;;;;;1.05;0.70;;;;;;;19.58;64.01;96614.97;10531125;28;20043;-53
2022/09/11 04:50:40;;;;;;;0.90;0.70;;;;;;;19.58;64.01;96619.56;10514660;28;20124;-53
2022/09/11 04:56:12;;;;;;;0.93;0.60;;;;;;;19.58;64.04;96622.28;10523742;28;20048;-51
2022/09/11 05:01:36;;;;;;;0.77;0.60;;;;;;;19.58;64.16;96633.09;10547765;28;20041;-52
2022/09/11 05:06:56;;;;;;;0.70;0.63;;;;;;;19.57;64.00;96626.91;10527573;28;20100;-53
2022/09/11 05:12:17;;;;;;;0.80;0.77;;;;;;;19.57;63.98;96637.72;10526854;28;20060;-53
2022/09/11 05:17:38;;;;;;;0.70;0.70;;;;;;;19.56;63.90;96631.53;10554913;28;20048;-53
2022/09/11 05:22:59;;;;;;;1.35;0.70;;;;;;;19.58;63.87;96638.50;10530797;28;20507;-52
2022/09/11 05:28:20;;;;;;;0.60;0.60;;;;;;;19.58;63.93;96652.78;10554060;28;20537;-54
2022/09/11 05:33:40;;;;;;;1.23;0.70;;;;;;;19.57;63.96;96653.91;10552194;28;20050;-52
2022/09/11 05:39:02;;;;;;;1.25;0.60;;;;;;;19.56;63.94;96661.25;10529851;28;20052;-52
2022/09/11 05:44:22;;;;;;;0.88;0.70;;;;;;;19.57;63.90;96659.31;10530402;28;20048;-52
2022/09/11 05:49:42;;;;;;;0.90;0.60;;;;;;;19.58;63.87;96671.69;10553608;28;20059;-52
2022/09/11 05:55:03;;;;;;;0.90;0.65;;;;;;;19.56;63.91;96673.94;10513018;28;20492;-52
2022/09/11 06:00:24;;;;;;;0.80;0.80;;;;;;;19.57;63.90;96675.53;10526171;28;20052;-51
2022/09/11 06:05:43;;;;;;;0.90;0.57;;;;;;;19.56;63.85;96684.75;10531853;28;20049;-53
2022/09/11 06:11:06;;;;;;;0.70;0.65;;;;;;;19.57;63.81;96691.75;10525535;28;20048;-52
2022/09/11 06:16:30;;;;;;;0.70;0.70;;;;;;;19.56;63.90;96682.88;10535293;28;20479;-53
2022/09/11 06:21:55;;;;;;;0.63;0.63;;;;;;;19.55;63.78;96692.06;10517005;28;20048;-53
2022/09/11 06:27:30;;;;;;;1.00;0.68;;;;;;;19.58;63.81;96703.34;10512410;28;20507;-53
2022/09/11 06:32:50;;;;;;;0.60;0.60;;;;;;;19.56;63.83;96695.56;10518538;28;20117;-53
2022/09/11 06:38:12;;;;;;;0.60;0.60;;;;;;;19.55;63.81;96699.41;10520937;28;20048;-54
2022/09/11 06:43:32;;;;;;;0.60;0.50;;;;;;;19.56;63.72;96700.97;10521702;28;20063;-54
2022/09/11 06:48:54;;;;;;;0.65;0.60;;;;;;;19.56;63.79;96699.06;10540397;28;20048;-53
2022/09/11 06:54:18;;;;;;;0.50;0.50;;;;;;;19.55;63.79;96705.59;10536350;28;20176;-53
2022/09/11 06:59:37;;;;;;;0.73;0.55;;;;;;;19.56;63.86;96701.78;10537486;28;20568;-53
2022/09/11 07:04:57;;;;;;;0.52;0.52;;;;;;;19.58;63.82;96708.75;10540814;28;20089;-54
2022/09/11 07:10:21;;;;;;;0.50;0.50;;;;;;;19.56;63.80;96711.78;10523112;28;20052;-53
2022/09/11 07:15:48;;;;;;;0.52;0.52;;;;;;;19.56;63.82;96707.19;10532697;28;20050;-53
2022/09/11 07:21:14;;;;;;;0.57;0.57;;;;;;;19.58;63.77;96697.94;10549439;28;20060;-53
2022/09/11 07:26:37;;;;;;;0.63;0.60;;;;;;;19.57;63.65;96713.38;10537341;28;20048;-53
2022/09/11 07:32:05;;;;;;;0.90;0.60;;;;;;;19.56;63.73;96718.00;10535282;28;20079;-52
2022/09/11 07:37:25;;;;;;;0.65;0.60;;;;;;;19.56;63.58;96720.69;10546966;28;20052;-53
2022/09/11 07:42:44;;;;;;;0.65;0.60;;;;;;;19.58;63.69;96724.97;10536533;28;20051;-53
2022/09/11 07:48:05;;;;;;;0.60;0.60;;;;;;;19.59;63.66;96726.56;10565995;28;20111;-53
2022/09/11 07:53:31;;;;;;;1.05;0.93;;;;;;;19.58;63.74;96719.56;10542549;28;20403;-53
2022/09/11 07:58:53;;;;;;;0.55;0.55;;;;;;;19.59;63.85;96723.84;10527664;28;20462;-53
2022/09/11 08:04:15;;;;;;;1.20;1.10;;;;;;;19.60;64.18;96733.53;10543112;28;20471;-53
2022/09/11 08:09:35;;;;;;;0.70;0.70;;;;;;;19.60;64.31;96728.94;10565489;28;20036;-53
2022/09/11 08:14:56;;;;;;;1.38;0.80;;;;;;;19.61;64.36;96735.13;10566463;28;20049;-53
2022/09/11 08:20:16;;;;;;;1.98;0.80;;;;;;;19.59;64.56;96742.78;10532837;28;20058;-53
2022/09/11 08:25:38;;;;;;;0.68;0.68;;;;;;;19.60;64.48;96747.03;10543270;28;20465;-54
2022/09/11 08:30:58;;;;;;;0.70;0.70;;;;;;;19.61;64.46;96752.13;10531741;28;20088;-54
2022/09/11 08:36:18;;;;;;;0.55;0.55;;;;;;;19.60;64.49;96749.75;10535536;28;20056;-53
2022/09/11 08:41:52;;;;;;;0.60;0.60;;;;;;;19.60;64.40;96755.16;10531423;28;20063;-53
2022/09/11 08:47:17;;;;;;;0.75;0.60;;;;;;;19.59;64.45;96743.56;10528476;28;20048;-53
2022/09/11 08:52:38;;;;;;;0.70;0.70;;;;;;;19.61;64.44;96756.75;10514200;28;20178;-52
2022/09/11 08:58:12;;;;;;;0.75;0.70;;;;;;;19.61;64.39;96751.34;10499406;28;20131;-53
2022/09/11 09:03:44;;;;;;;0.60;0.60;;;;;;;19.61;64.36;96735.13;10510215;28;20047;-52
2022/09/11 09:09:23;;;;;;;1.25;0.63;;;;;;;19.62;64.39;96747.50;10533612;28;20429;-53
2022/09/11 09:14:56;;;;;;;2.17;0.80;;;;;;;19.63;64.41;96751.81;10519326;28;20513;-51
2022/09/11 09:20:21;;;;;;;1.00;0.70;;;;;;;19.62;64.47;96748.31;10571671;28;20450;-52
2022/09/11 09:25:42;;;;;;;0.60;0.60;;;;;;;19.62;64.51;96742.09;10565663;28;20050;-52
2022/09/11 09:31:06;;;;;;;0.50;0.50;;;;;;;19.63;64.43;96749.09;10526072;28;20119;-53
2022/09/11 09:36:33;;;;;;;0.60;0.60;;;;;;;19.63;64.56;96751.81;10540136;28;20044;-54
2022/09/11 09:42:21;;;;;;;1.33;0.60;;;;;;;19.62;64.49;96758.31;10553145;28;20060;-52
2022/09/11 09:47:43;;;;;;;1.67;0.70;;;;;;;19.63;64.62;96759.91;10526300;28;20464;-52
2022/09/11 09:53:31;;;;;;;1.27;0.80;;;;;;;19.62;64.66;96758.31;10504750;28;20044;-51
2022/09/11 09:59:01;;;;;;;2.20;0.70;;;;;;;19.64;64.78;96761.50;10532823;28;20079;-51
2022/09/11 10:04:23;;;;;;;1.40;1.23;;;;;;;19.61;63.45;96764.84;10552769;28;20055;-51
2022/09/11 10:09:50;;;;;;;1.50;1.40;;;;;;;19.57;62.02;96762.00;10542514;28;20377;-50
2022/09/11 10:15:17;;;;;;;1.48;1.30;;;;;;;19.56;61.82;96755.81;10525127;28;20058;-50
2022/09/11 10:20:37;;;;;;;1.75;1.65;;;;;;;19.56;61.53;96761.22;10538331;28;20066;-49
2022/09/11 10:25:57;;;;;;;1.70;1.30;;;;;;;19.55;60.79;96751.53;10554346;28;20047;-51
2022/09/11 10:31:17;;;;;;;1.75;1.45;;;;;;;19.54;60.15;96768.88;10539166;28;20052;-52
2022/09/11 10:36:36;;;;;;;4.15;1.50;;;;;;;19.53;59.74;96777.28;10540648;28;20051;-52
2022/09/11 10:42:02;;;;;;;2.58;1.70;;;;;;;19.52;60.76;96775.69;10564876;28;20059;-52
2022/09/11 10:47:27;;;;;;;4.45;2.47;;;;;;;19.51;61.60;96772.19;10555626;28;20514;-51
2022/09/11 10:52:56;;;;;;;5.35;2.13;;;;;;;19.49;62.24;96769.03;10525246;28;20052;-52
2022/09/11 10:58:18;;;;;;;4.72;2.58;;;;;;;19.48;62.92;96770.16;10553961;28;20052;-52
2022/09/11 11:03:37;;;;;;;8.63;4.38;;;;;;;19.50;63.12;96759.81;10528697;28;20044;-53
2022/09/11 11:09:31;;;;;;;11.55;6.80;;;;;;;19.52;63.57;96781.09;10527442;28;20449;-53
2022/09/11 11:15:21;;;;;;;16.17;8.80;;;;;;;19.53;63.63;96790.78;10537280;28;20048;-50
2022/09/11 11:20:55;;;;;;;12.38;7.30;;;;;;;19.53;63.61;96791.59;10549194;28;20105;-54
2022/09/11 11:26:41;;;;;;;10.13;6.03;;;;;;;19.55;64.03;96783.16;10553291;28;20044;-57
2022/09/11 11:32:26;;;;;;;13.50;7.03;;;;;;;19.55;64.48;96783.94;10546824;28;20052;-51
2022/09/11 11:37:48;;;;;;;4.88;3.97;;;;;;;19.55;64.21;96781.25;10564083;28;20543;-54
2022/09/11 11:43:16;;;;;;;7.18;4.22;;;;;;;19.53;64.10;96788.88;10539611;28;20528;-53
2022/09/11 11:48:43;;;;;;;6.57;3.85;;;;;;;19.54;64.29;96790.47;10547937;28;20057;-53
2022/09/11 11:54:26;;;;;;;7.72;3.85;;;;;;;19.55;64.62;96786.66;10536002;28;20072;-53
2022/09/11 12:00:00;;;;;;;6.35;4.05;;;;;;;19.56;64.67;96793.66;10537934;28;20067;-52
2022/09/11 12:05:23;;;;;;;3.85;3.17;;;;;;;19.58;64.65;96803.31;10530022;28;20048;-52
2022/09/11 12:10:45;;;;;;;3.67;3.10;;;;;;;19.56;64.59;96793.66;10560686;28;20486;-54
2022/09/11 12:16:20;;;;;;;5.82;3.70;;;;;;;19.56;64.45;96799.06;10542990;28;20052;-54
2022/09/11 12:22:02;;;;;;;4.45;2.85;;;;;;;19.58;64.32;96796.00;10564776;28;20038;-52
2022/09/11 12:27:33;;;;;;;3.83;2.67;;;;;;;19.59;64.15;96794.13;10579126;28;20032;-51
2022/09/11 12:32:59;;;;;;;3.13;2.55;;;;;;;19.59;63.95;96797.59;10570660;28;20088;-54
2022/09/11 12:38:25;;;;;;;2.70;2.50;;;;;;;19.60;63.70;96798.38;10560028;28;20080;-54
2022/09/11 12:43:47;;;;;;;2.58;2.15;;;;;;;19.59;63.16;96804.94;10542467;28;20044;-53
2022/09/11 12:49:09;;;;;;;3.13;2.20;;;;;;;19.57;63.12;96816.06;10543377;28;20430;-51
2022/09/11 12:54:38;;;;;;;3.80;2.17;;;;;;;19.58;63.14;96823.03;10550127;28;20051;-52
2022/09/11 13:00:02;;;;;;;2.30;2.10;;;;;;;19.59;63.29;96813.03;10551592;28;20498;-52
2022/09/11 13:05:33;;;;;;;3.63;1.95;;;;;;;19.58;63.45;96817.63;10542924;28;20105;-70
2022/09/11 13:11:32;;;;;;;4.82;2.17;;;;;;;19.56;63.66;96809.06;10537387;28;20068;-69
2022/09/11 13:16:53;;;;;;;2.60;1.85;;;;;;;19.55;63.86;96813.66;10529536;28;20055;-69
2022/09/11 13:22:42;;;;;;;3.25;1.85;;;;;;;19.58;64.15;96808.72;10527170;28;20498;-53
2022/09/11 13:28:05;;;;;;;2.95;1.80;;;;;;;19.59;64.11;96813.81;10517954;28;20059;-52
2022/09/11 13:33:27;;;;;;;2.63;2.00;;;;;;;19.59;64.09;96829.25;10555644;28;20122;-53
2022/09/11 13:38:50;;;;;;;1.88;1.77;;;;;;;19.57;63.51;96840.38;10536662;28;20051;-53
2022/09/11 13:44:21;;;;;;;6.13;2.33;;;;;;;19.58;63.68;96838.47;10572271;28;20108;-52
2022/09/11 13:49:41;;;;;;;6.07;2.50;;;;;;;19.60;63.87;96841.63;10571118;28;20066;-53
2022/09/11 13:55:27;;;;;;;3.42;2.25;;;;;;;19.60;64.09;96841.63;10559850;28;20067;-49
2022/09/11 14:00:48;;;;;;;3.47;2.28;;;;;;;19.60;64.32;96853.25;10576509;28;20444;-52
2022/09/11 14:06:10;;;;;;;2.35;2.15;;;;;;;19.61;64.46;96851.34;10554645;28;20092;-53
2022/09/11 14:11:30;;;;;;;5.78;3.72;;;;;;;19.63;64.59;96847.19;10539873;28;20540;-54
2022/09/11 14:16:53;;;;;;;7.13;3.90;;;;;;;19.64;65.17;96842.56;10564767;28;20131;-54
2022/09/11 14:22:24;;;;;;;9.73;3.40;;;;;;;19.65;65.39;96849.56;10566898;28;20057;-55
2022/09/11 14:27:44;;;;;;;8.02;3.47;;;;;;;19.65;65.15;96858.47;10556928;28;20048;-53
2022/09/11 14:33:22;;;;;;;4.72;3.90;;;;;;;19.63;64.15;96858.00;10539245;28;20108;-47
2022/09/11 14:38:41;;;;;;;5.80;4.03;;;;;;;19.63;63.62;96865.31;10572319;28;20434;-51
2022/09/11 14:44:01;;;;;;;13.63;7.13;;;;;;;19.63;63.56;96862.63;10558429;28;20298;-52
2022/09/11 14:49:21;;;;;;;10.32;5.93;;;;;;;19.63;63.87;96868.03;10541410;28;20059;-50
2022/09/11 14:54:41;;;;;;;8.20;4.93;;;;;;;19.63;64.02;96874.22;10551963;28;20040;-55
2022/09/11 15:00:01;;;;;;;9.75;5.07;;;;;;;19.63;64.47;96870.72;10538411;28;20055;-54
2022/09/11 15:05:23;;;;;;;9.35;5.35;;;;;;;19.65;64.84;96873.91;10538197;28;20054;-51
2022/09/11 15:10:45;;;;;;;7.45;4.50;;;;;;;19.65;64.92;96868.50;10525972;28;20048;-55
2022/09/11 15:16:04;;;;;;;7.57;4.03;;;;;;;19.65;65.01;96869.28;10527951;28;20048;-51
2022/09/11 15:21:24;;;;;;;7.85;4.20;;;;;;;19.65;65.01;96882.00;10521651;28;20155;-45
2022/09/11 15:26:45;;;;;;;10.35;3.70;;;;;;;19.65;65.02;96877.38;10537707;28;20094;-46
2022/09/11 15:32:06;;;;;;;5.45;3.88;;;;;;;19.67;65.12;96885.19;10537384;28;20138;-45
2022/09/11 15:37:26;;;;;;;4.45;3.55;;;;;;;19.66;65.09;96889.78;10537828;28;20052;-47
2022/09/11 15:42:48;;;;;;;4.85;3.80;;;;;;;19.67;65.32;96885.97;10506116;28;20511;-47
2022/09/11 15:48:08;;;;;;;5.20;3.08;;;;;;;19.67;65.45;96887.88;10482261;28;20580;-45
2022/09/11 15:53:28;;;;;;;5.43;3.40;;;;;;;19.69;65.52;96891.06;10496171;28;20059;-49
2022/09/11 15:58:47;;;;;;;4.18;3.38;;;;;;;19.69;65.52;96899.16;10515464;28;20454;-47
2022/09/11 16:04:09;;;;;;;5.80;3.30;;;;;;;19.71;65.61;96910.44;10505630;28;20056;-50
2022/09/11 16:09:30;;;;;;;4.38;3.60;;;;;;;19.69;65.64;96915.38;10506049;28;20053;-48
2022/09/11 16:14:51;;;;;;;5.22;3.55;;;;;;;19.69;65.85;96916.16;10503364;28;20381;-48
2022/09/11 16:20:14;;;;;;;5.43;3.20;;;;;;;19.71;65.92;96915.84;10503036;28;20056;-52
2022/09/11 16:25:38;;;;;;;4.45;3.00;;;;;;;19.71;65.96;96916.66;10505124;28;20070;-51
2022/09/11 16:30:57;;;;;;;3.92;3.15;;;;;;;19.72;65.96;96910.16;10518620;28;20438;-54
2022/09/11 16:36:19;;;;;;;15.77;4.50;;;;;;;19.71;65.99;96908.56;10501464;28;20515;-50
2022/09/11 16:41:39;;;;;;;6.82;3.58;;;;;;;19.71;66.11;96915.84;10526695;28;20144;-54
2022/09/11 16:47:00;;;;;;;20.52;6.57;;;;;;;19.72;66.36;96922.88;10555077;28;20074;-53
2022/09/11 16:52:19;;;;;;;12.45;4.90;;;;;;;19.72;66.56;96922.88;10538645;28;20074;-52
2022/09/11 16:57:43;;;;;;;13.80;4.43;;;;;;;19.72;66.57;96923.66;10543266;28;20060;-53
2022/09/11 17:03:02;;;;;;;10.25;4.30;;;;;;;19.73;66.68;96910.94;10541557;28;20049;-47
2022/09/11 17:08:21;;;;;;;10.40;4.07;;;;;;;19.73;66.55;96922.53;10546322;28;20059;-48
2022/09/11 17:13:42;;;;;;;9.73;4.30;;;;;;;19.73;66.55;96927.16;10543485;28;20044;-51
2022/09/11 17:19:02;;;;;;;10.50;3.95;;;;;;;19.72;66.44;96929.06;10541698;28;20086;-50
2022/09/11 17:24:23;;;;;;;8.55;3.90;;;;;;;19.71;66.19;96932.88;10564609;28;20479;-51
2022/09/11 17:29:43;;;;;;;6.65;3.90;;;;;;;19.72;66.25;96941.81;10542093;28;20056;-50
2022/09/11 17:35:03;;;;;;;11.63;3.28;;;;;;;19.71;66.24;96940.97;10540663;28;20466;-52
2022/09/11 17:40:22;;;;;;;8.95;3.50;;;;;;;19.71;66.12;96940.16;10551296;28;20491;-51
2022/09/11 17:45:42;;;;;;;6.15;3.40;;;;;;;19.71;66.11;96945.56;10571177;28;20390;-51
2022/09/11 17:51:11;;;;;;;6.03;3.60;;;;;;;19.71;66.10;96950.97;10548508;28;20051;-48
2022/09/11 17:56:31;;;;;;;7.35;2.88;;;;;;;19.70;65.98;96957.53;10577446;28;20044;-51
2022/09/11 18:01:50;;;;;;;5.55;2.85;;;;;;;19.71;65.90;96950.97;10550027;28;20437;-50
2022/09/11 18:07:10;;;;;;;5.55;3.42;;;;;;;19.73;66.03;96959.59;10551061;28;20048;-46
2022/09/11 18:12:34;;;;;;;2.85;2.47;;;;;;;19.72;65.68;96958.03;10562141;28;20055;-48
2022/09/11 18:17:53;;;;;;;8.23;2.90;;;;;;;19.72;65.72;96964.22;10524363;28;20135;-47
2022/09/11 18:23:15;;;;;;;10.38;2.67;;;;;;;19.71;65.79;96957.19;10550324;28;20403;-61
2022/09/11 18:28:36;;;;;;;6.45;2.65;;;;;;;19.74;65.92;96966.59;10556723;28;20055;-58
2022/09/11 18:33:56;;;;;;;7.20;2.90;;;;;;;19.73;65.96;96975.81;10573236;28;20048;-58
2022/09/11 18:39:17;;;;;;;5.18;2.85;;;;;;;19.72;66.09;96979.66;10552723;28;20490;-57
2022/09/11 18:44:36;;;;;;;5.05;2.80;;;;;;;19.72;66.13;96979.66;10531215;28;20044;-59
2022/09/11 18:49:57;;;;;;;4.32;2.88;;;;;;;19.71;66.20;96972.59;10538824;28;20048;-63
2022/09/11 18:55:21;;;;;;;5.60;2.97;;;;;;;19.72;66.25;96972.31;10538526;28;20097;-58
2022/09/11 19:00:41;;;;;;;4.38;2.78;;;;;;;19.72;66.36;96968.84;10554246;28;20044;-60
2022/09/11 19:06:06;;;;;;;7.65;2.90;;;;;;;19.72;66.46;96975.03;10527638;28;20485;-61
2022/09/11 19:11:27;;;;;;;4.22;2.60;;;;;;;19.73;66.54;96976.59;10538291;28;20410;-64
2022/09/11 19:16:47;;;;;;;5.78;2.88;;;;;;;19.72;66.66;96988.53;10540932;28;20102;-60
2022/09/11 19:22:07;;;;;;;5.60;2.65;;;;;;;19.72;66.82;97001.25;10537207;28;20061;-55
2022/09/11 19:27:28;;;;;;;3.95;2.70;;;;;;;19.72;66.73;96983.13;10537397;28;20044;-47
2022/09/11 19:32:47;;;;;;;4.53;2.75;;;;;;;19.73;66.87;96987.41;10537833;28;20048;-53
2022/09/11 19:38:07;;;;;;;6.68;2.65;;;;;;;19.75;67.38;96995.19;10534382;28;20056;-56
2022/09/11 19:43:29;;;;;;;7.32;2.50;;;;;;;19.75;67.39;96995.19;10536947;28;20097;-54
2022/09/11 19:48:50;;;;;;;3.60;2.50;;;;;;;19.74;67.30;96999.81;10545466;28;20427;-54
2022/09/11 19:54:12;;;;;;;4.45;2.33;;;;;;;19.75;67.28;97006.00;10545680;28;20149;-54
2022/09/11 19:59:31;;;;;;;5.10;2.60;;;;;;;19.74;67.28;97007.94;10545707;28;20052;-54
2022/09/11 20:04:51;;;;;;;4.05;2.42;;;;;;;19.75;67.35;97014.13;10573232;28;20044;-53
2022/09/11 20:10:11;;;;;;;4.43;2.63;;;;;;;19.75;67.36;97019.53;10555319;28;20093;-54
2022/09/11 20:15:35;;;;;;;3.20;2.22;;;;;;;19.74;67.42;97009.84;10558255;28;20441;-54
2022/09/11 20:20:54;;;;;;;3.38;2.40;;;;;;;19.75;67.42;97011.41;10544553;28;20048;-53
2022/09/11 20:26:17;;;;;;;4.55;2.60;;;;;;;19.74;67.45;97001.75;10543962;28;20149;-53
2022/09/11 20:31:38;;;;;;;2.90;2.17;;;;;;;19.76;67.45;97002.22;10505363;28;20044;-54
2022/09/11 20:36:59;;;;;;;4.22;2.20;;;;;;;19.74;67.55;97005.22;10557257;28;20177;-53
2022/09/11 20:42:20;;;;;;;3.47;2.28;;;;;;;19.74;67.46;97010.63;10578562;28;20391;-52
2022/09/11 20:47:40;;;;;;;3.90;2.55;;;;;;;19.76;67.57;97013.03;10549869;28;20052;-52
2022/09/11 20:52:59;;;;;;;3.40;2.17;;;;;;;19.75;67.57;97011.41;10560657;28;20051;-54
2022/09/11 20:58:18;;;;;;;3.53;2.15;;;;;;;19.75;67.63;97011.41;10543347;28;20056;-53
2022/09/11 21:03:43;;;;;;;3.72;2.08;;;;;;;19.74;67.48;97010.63;10565638;28;20070;-53
2022/09/11 21:09:05;;;;;;;4.30;2.38;;;;;;;19.75;67.76;97008.72;10573558;28;20059;-52
2022/09/11 21:14:25;;;;;;;2.40;2.05;;;;;;;19.74;67.64;97016.03;10578195;28;20096;-52
2022/09/11 21:19:44;;;;;;;4.45;2.20;;;;;;;19.74;67.68;97018.75;10571053;28;20486;-52
2022/09/11 21:25:04;;;;;;;4.03;2.20;;;;;;;19.74;67.69;97015.25;10571683;28;20055;-53
2022/09/11 21:30:23;;;;;;;2.45;2.05;;;;;;;19.74;67.64;97021.44;10584246;28;20112;-52
2022/09/11 21:35:47;;;;;;;2.33;2.13;;;;;;;19.74;67.72;97026.84;10572728;28;20048;-53
2022/09/11 21:41:09;;;;;;;3.30;2.30;;;;;;;19.74;67.63;97015.25;10582921;28;20552;-53
2022/09/11 21:46:29;;;;;;;2.65;1.80;;;;;;;19.76;67.63;97015.72;10595930;28;20047;-53
2022/09/11 21:51:48;;;;;;;3.05;2.30;;;;;;;19.73;67.77;97009.03;10572882;28;20036;-54
2022/09/11 21:57:07;;;;;;;2.85;2.10;;;;;;;19.74;67.79;97005.22;10576209;28;20415;-52
2022/09/11 22:02:27;;;;;;;2.92;1.92;;;;;;;19.74;67.65;97004.44;10554533;28;20453;-53
2022/09/11 22:07:47;;;;;;;2.30;1.75;;;;;;;19.75;67.84;97016.81;10553069;28;20043;-53
2022/09/11 22:13:08;;;;;;;2.63;1.88;;;;;;;19.74;67.81;97004.44;10575197;28;20547;-53
2022/09/11 22:18:28;;;;;;;2.13;1.92;;;;;;;19.74;67.90;97005.22;10567567;28;20101;-52
2022/09/11 22:23:47;;;;;;;3.00;2.30;;;;;;;19.74;67.71;97005.22;10589291;28;20444;-52
2022/09/11 22:29:07;;;;;;;2.53;1.90;;;;;;;19.74;67.83;96999.03;10553657;28;20059;-53
2022/09/11 22:34:27;;;;;;;1.70;1.60;;;;;;;19.74;67.84;96999.03;10581064;28;20100;-53
2022/09/11 22:39:48;;;;;;;1.63;1.52;;;;;;;19.74;67.78;97007.16;10576315;28;20061;-53
2022/09/11 22:45:08;;;;;;;3.28;2.00;;;;;;;19.74;67.72;97004.44;10583333;28;20479;-52
2022/09/11 22:50:27;;;;;;;1.80;1.70;;;;;;;19.73;67.75;97003.63;10556120;28;20058;-54
2022/09/11 22:55:48;;;;;;;2.13;1.92;;;;;;;19.74;67.73;97015.25;10568542;28;20047;-54
2022/09/11 23:01:09;;;;;;;2.13;1.90;;;;;;;19.73;67.73;97005.53;10538632;28;20055;-51
2022/09/11 23:12:07;;;;;;;1.92;1.75;;;;;;;19.73;67.75;97005.53;10559331;28;20050;-55
2022/09/11 23:17:27;;;;;;;1.85;1.70;;;;;;;19.73;67.73;97000.13;10558239;28;20043;-52
2022/09/11 23:22:46;;;;;;;2.08;1.63;;;;;;;19.73;67.79;97005.53;10547053;28;20050;-52
2022/09/11 23:28:05;;;;;;;1.85;1.50;;;;;;;19.74;67.69;97012.56;10577196;28;20047;-52
2022/09/11 23:33:25;;;;;;;1.70;1.60;;;;;;;19.72;67.67;97007.47;10559884;28;20100;-53
2022/09/11 23:38:45;;;;;;;2.00;1.80;;;;;;;19.73;67.71;97006.34;10573168;28;20055;-54
2022/09/11 23:44:05;;;;;;;2.38;1.80;;;;;;;19.73;67.71;97000.13;10576792;28;20051;-52
2022/09/11 23:49:24;;;;;;;1.70;1.58;;;;;;;19.72;67.73;96998.56;10540699;28;20047;-53
2022/09/11 23:54:43;;;;;;;2.78;1.80;;;;;;;19.73;67.72;97000.94;10551938;28;20048;-53
